createdAt,value
2019-06-10T00:01:32.215Z,65.13
2019-06-10T00:04:05.110Z,65.13
2019-06-10T00:06:32.445Z,65.06
2019-06-10T00:09:04.754Z,65.35
2019-06-10T00:11:32.665Z,65.49
2019-06-10T00:14:03.948Z,65.51
2019-06-10T00:16:32.993Z,65.49
2019-06-10T00:19:06.049Z,65.53
2019-06-10T00:21:33.237Z,65.68
2019-06-10T00:24:05.232Z,65.72
2019-06-10T00:26:33.758Z,65.94
2019-06-10T00:29:04.755Z,65.92
2019-06-10T00:31:34.019Z,66.03
2019-06-10T00:34:04.686Z,66.63
2019-06-10T00:36:34.312Z,66.27
2019-06-10T00:39:06.817Z,66.17
2019-06-10T00:41:36.703Z,66.29
2019-06-10T00:44:06.918Z,66.28
2019-06-10T00:46:36.890Z,66.35
2019-06-10T00:49:08.109Z,66.31
2019-06-10T00:51:37.201Z,66.34
2019-06-10T00:54:07.035Z,66.51
2019-06-10T00:56:37.402Z,66.41
2019-06-10T00:59:07.776Z,66.45
2019-06-10T01:01:37.028Z,66.33
2019-06-10T01:04:06.863Z,66.49
2019-06-10T01:06:36.967Z,66.54
2019-06-10T01:09:08.793Z,66.48
2019-06-10T01:11:41.150Z,66.46
2019-06-10T01:14:12.606Z,66.49
2019-06-10T01:16:41.594Z,66.37
2019-06-10T01:19:12.730Z,66.29
2019-06-10T01:21:42.309Z,66.22
2019-06-10T01:24:13.295Z,66.25
2019-06-10T01:26:42.588Z,66.25
2019-06-10T01:29:13.653Z,66.14
2019-06-10T01:31:42.870Z,66.18
2019-06-10T01:34:13.605Z,66.15
2019-06-10T01:36:43.228Z,66.13
2019-06-10T01:39:14.742Z,66.05
2019-06-10T01:41:43.485Z,66.02
2019-06-10T01:44:14.285Z,66.05
2019-06-10T01:46:43.658Z,66.05
2019-06-10T01:49:14.546Z,65.87
2019-06-10T01:51:43.820Z,66.04
2019-06-10T01:54:15.113Z,66.04
2019-06-10T01:56:44.170Z,65.78
2019-06-10T01:59:15.088Z,65.83
2019-06-10T02:02:00.923Z,65.70
2019-06-10T02:04:32.026Z,65.61
2019-06-10T02:07:01.253Z,65.66
2019-06-10T02:09:31.104Z,65.55
2019-06-10T02:12:02.172Z,65.40
2019-06-10T02:14:32.038Z,65.44
2019-06-10T02:17:02.501Z,65.29
2019-06-10T02:19:32.042Z,65.15
2019-06-10T02:22:01.481Z,65.10
2019-06-10T02:24:31.551Z,65.06
2019-06-10T02:27:01.226Z,65.12
2019-06-10T02:29:30.922Z,65.04
2019-06-10T02:32:04.312Z,64.98
2019-06-10T02:34:34.109Z,64.88
2019-06-10T02:37:04.752Z,64.92
2019-06-10T02:39:38.799Z,64.87
2019-06-10T02:42:13.153Z,64.87
2019-06-10T02:44:44.192Z,64.90
2019-06-10T02:47:14.298Z,64.93
2019-06-10T02:49:57.048Z,64.95
2019-06-10T02:52:24.617Z,65.05
2019-06-10T02:54:53.412Z,64.98
2019-06-10T02:57:29.679Z,64.99
2019-06-10T02:59:54.364Z,64.95
2019-06-10T03:02:30.071Z,64.95
2019-06-10T03:04:54.709Z,65.07
2019-06-10T03:07:28.345Z,65.24
2019-06-10T03:09:54.867Z,65.43
2019-06-10T03:12:25.917Z,65.25
2019-06-10T03:14:55.522Z,65.24
2019-06-10T03:17:26.348Z,65.35
2019-06-10T03:19:55.910Z,65.35
2019-06-10T03:22:25.831Z,65.33
2019-06-10T03:24:55.583Z,65.32
2019-06-10T03:27:26.586Z,65.32
2019-06-10T03:29:55.810Z,65.40
2019-06-10T03:32:33.260Z,65.39
2019-06-10T03:34:56.005Z,65.47
2019-06-10T03:37:26.377Z,65.47
2019-06-10T03:39:56.501Z,65.42
2019-06-10T03:42:27.795Z,65.43
2019-06-10T03:44:56.652Z,65.38
2019-06-10T03:47:27.212Z,65.39
2019-06-10T03:49:56.818Z,65.41
2019-06-10T03:52:27.193Z,65.42
2019-06-10T03:54:56.996Z,65.49
2019-06-10T03:57:27.311Z,65.30
2019-06-10T03:59:57.243Z,65.31
2019-06-10T04:02:27.226Z,65.28
2019-06-10T04:04:57.393Z,65.16
2019-06-10T04:07:30.664Z,65.11
2019-06-10T04:09:57.661Z,65.01
2019-06-10T04:12:28.780Z,65.04
2019-06-10T04:14:58.269Z,64.91
2019-06-10T04:17:28.759Z,64.73
2019-06-10T04:20:09.317Z,64.55
2019-06-10T04:22:29.158Z,64.30
2019-06-10T04:24:58.500Z,64.21
2019-06-10T04:27:28.420Z,64.16
2019-06-10T04:29:57.782Z,64.05
2019-06-10T04:32:27.789Z,64.04
2019-06-10T04:34:57.961Z,63.94
2019-06-10T04:37:28.151Z,63.85
2019-06-10T04:39:58.872Z,63.78
2019-06-10T04:42:28.958Z,63.82
2019-06-10T04:44:58.510Z,63.80
2019-06-10T04:47:28.391Z,63.74
2019-06-10T04:49:58.673Z,63.45
2019-06-10T04:52:28.443Z,63.41
2019-06-10T04:54:59.136Z,63.09
2019-06-10T04:57:29.607Z,63.02
2019-06-10T04:59:58.937Z,62.92
2019-06-10T05:02:28.957Z,62.84
2019-06-10T05:04:59.203Z,62.76
2019-06-10T05:07:33.420Z,62.67
2019-06-10T05:09:59.534Z,62.67
2019-06-10T05:12:29.625Z,62.49
2019-06-10T05:14:59.041Z,62.40
2019-06-10T05:17:29.736Z,62.15
2019-06-10T05:19:59.283Z,62.16
2019-06-10T05:22:28.549Z,62.00
2019-06-10T05:24:57.998Z,61.62
2019-06-10T05:27:28.526Z,61.44
2019-06-10T05:29:57.959Z,61.46
2019-06-10T05:32:27.867Z,61.35
2019-06-10T05:34:58.354Z,61.51
2019-06-10T05:37:28.186Z,61.35
2019-06-10T05:39:58.498Z,61.23
2019-06-10T05:42:29.008Z,60.93
2019-06-10T05:44:58.491Z,60.22
2019-06-10T05:47:29.842Z,60.21
2019-06-10T05:49:59.150Z,60.09
2019-06-10T05:52:29.073Z,59.88
2019-06-10T05:54:58.573Z,59.69
2019-06-10T05:57:29.389Z,59.51
2019-06-10T05:59:58.751Z,59.43
2019-06-10T06:02:27.987Z,59.24
2019-06-10T06:04:57.189Z,59.25
2019-06-10T06:07:27.041Z,58.86
2019-06-10T06:09:56.246Z,58.31
2019-06-10T06:12:25.535Z,58.25
2019-06-10T06:14:54.742Z,58.18
2019-06-10T06:17:23.987Z,58.10
2019-06-10T06:19:53.542Z,57.78
2019-06-10T06:22:23.088Z,57.59
2019-06-10T06:24:52.406Z,57.34
2019-06-10T06:27:22.551Z,57.17
2019-06-10T06:29:52.442Z,57.27
2019-06-10T06:32:23.607Z,56.72
2019-06-10T06:34:53.326Z,56.81
2019-06-10T06:37:23.181Z,56.57
2019-06-10T06:39:52.526Z,56.01
2019-06-10T06:42:22.900Z,56.09
2019-06-10T06:44:52.626Z,55.73
2019-06-10T06:47:22.551Z,55.90
2019-06-10T06:49:53.118Z,55.85
2019-06-10T06:52:46.548Z,55.22
2019-06-10T06:54:54.419Z,54.89
2019-06-10T06:57:23.618Z,54.41
2019-06-10T06:59:53.293Z,54.16
2019-06-10T07:02:22.818Z,54.50
2019-06-10T07:04:52.686Z,54.50
2019-06-10T07:07:22.626Z,54.40
2019-06-10T07:09:53.495Z,54.04
2019-06-10T07:12:24.682Z,53.79
2019-06-10T07:14:54.106Z,53.15
2019-06-10T07:17:23.454Z,53.00
2019-06-10T07:19:53.000Z,53.50
2019-06-10T07:22:23.352Z,53.54
2019-06-10T07:24:53.062Z,53.58
2019-06-10T07:27:22.718Z,53.09
2019-06-10T07:29:53.027Z,52.98
2019-06-10T07:32:22.814Z,52.64
2019-06-10T07:34:52.604Z,52.86
2019-06-10T07:37:23.241Z,53.21
2019-06-10T07:39:52.562Z,53.19
2019-06-10T07:42:22.711Z,52.55
2019-06-10T07:44:53.274Z,51.32
2019-06-10T07:47:23.168Z,51.47
2019-06-10T07:49:52.469Z,51.32
2019-06-10T07:52:23.501Z,49.21
2019-06-10T07:54:53.089Z,48.73
2019-06-10T07:57:22.951Z,47.14
2019-06-10T07:59:52.425Z,47.21
2019-06-10T08:02:23.059Z,46.97
2019-06-10T08:04:54.315Z,46.71
2019-06-10T08:07:23.602Z,46.96
2019-06-10T08:09:53.416Z,47.24
2019-06-10T08:12:23.475Z,46.48
2019-06-10T08:14:53.476Z,46.68
2019-06-10T08:17:22.810Z,45.93
2019-06-10T08:19:54.247Z,46.80
2019-06-10T08:22:34.052Z,46.86
2019-06-10T08:24:53.903Z,45.24
2019-06-10T08:27:23.221Z,44.12
2019-06-10T08:30:13.515Z,44.45
2019-06-10T08:32:24.509Z,43.72
2019-06-10T08:34:54.073Z,43.70
2019-06-10T08:37:23.599Z,43.69
2019-06-10T08:39:53.180Z,43.82
2019-06-10T08:42:23.430Z,42.68
2019-06-10T08:44:53.374Z,42.47
2019-06-10T08:47:23.078Z,41.32
2019-06-10T08:49:53.111Z,41.25
2019-06-10T08:52:23.675Z,41.07
2019-06-10T08:54:54.506Z,40.77
2019-06-10T08:57:24.455Z,41.54
2019-06-10T08:59:53.769Z,40.41
2019-06-10T09:02:23.258Z,40.67
2019-06-10T09:04:53.600Z,39.96
2019-06-10T09:07:23.861Z,39.88
2019-06-10T09:09:54.162Z,40.25
2019-06-10T09:12:32.403Z,39.80
2019-06-10T09:14:56.002Z,38.70
2019-06-10T09:17:25.197Z,39.49
2019-06-10T09:19:54.589Z,38.71
2019-06-10T09:22:23.921Z,38.92
2019-06-10T09:24:56.322Z,38.91
2019-06-10T09:27:26.935Z,39.19
2019-06-10T09:29:55.651Z,38.95
2019-06-10T09:32:25.072Z,38.58
2019-06-10T09:34:57.342Z,37.98
2019-06-10T09:37:25.418Z,38.88
2019-06-10T09:39:59.408Z,38.38
2019-06-10T09:42:25.927Z,37.92
2019-06-10T09:44:55.844Z,37.65
2019-06-10T09:47:25.478Z,36.35
2019-06-10T09:49:55.735Z,36.45
2019-06-10T09:52:25.362Z,37.06
2019-06-10T09:54:56.709Z,36.25
2019-06-10T09:57:25.507Z,36.22
2019-06-10T09:59:56.546Z,36.55
2019-06-10T10:02:25.995Z,35.26
2019-06-10T10:04:58.455Z,34.10
2019-06-10T10:07:26.973Z,34.48
2019-06-10T10:09:57.317Z,34.34
2019-06-10T10:12:26.657Z,35.09
2019-06-10T10:14:56.547Z,34.88
2019-06-10T10:17:25.975Z,34.59
2019-06-10T10:19:57.010Z,34.96
2019-06-10T10:22:26.189Z,36.45
2019-06-10T10:24:56.988Z,35.75
2019-06-10T10:27:26.325Z,36.12
2019-06-10T10:29:57.443Z,35.33
2019-06-10T10:32:26.746Z,34.77
2019-06-10T10:34:56.549Z,34.43
2019-06-10T10:37:26.158Z,33.80
2019-06-10T10:39:56.607Z,33.46
2019-06-10T10:42:41.433Z,33.12
2019-06-10T10:44:59.197Z,32.31
2019-06-10T10:47:28.057Z,33.39
2019-06-10T10:50:02.658Z,33.45
2019-06-10T10:52:33.057Z,33.95
2019-06-10T10:55:06.634Z,34.17
2019-06-10T10:57:33.084Z,33.59
2019-06-10T11:00:03.181Z,33.67
2019-06-10T11:02:32.509Z,33.48
2019-06-10T11:05:01.713Z,33.57
2019-06-10T11:07:33.323Z,33.34
2019-06-10T11:10:03.864Z,33.44
2019-06-10T11:12:34.833Z,33.27
2019-06-10T11:15:05.275Z,32.64
2019-06-10T11:17:34.891Z,32.28
2019-06-10T11:20:13.065Z,32.82
2019-06-10T11:22:43.357Z,33.31
2019-06-10T11:25:13.183Z,33.35
2019-06-10T11:27:43.144Z,32.50
2019-06-10T11:30:14.382Z,31.79
2019-06-10T11:32:43.594Z,30.77
2019-06-10T11:35:17.306Z,30.97
2019-06-10T11:37:46.812Z,30.42
2019-06-10T11:40:16.636Z,30.18
2019-06-10T11:42:46.307Z,29.72
2019-06-10T11:45:18.877Z,30.13
2019-06-10T11:47:49.381Z,30.41
2019-06-10T11:50:19.233Z,30.19
2019-06-10T11:52:49.689Z,31.70
2019-06-10T11:55:23.804Z,32.73
2019-06-10T11:57:54.986Z,31.31
2019-06-10T12:00:24.852Z,31.60
2019-06-10T12:02:57.277Z,31.28
2019-06-10T12:05:25.156Z,31.35
2019-06-10T12:07:57.641Z,31.42
2019-06-10T12:10:25.499Z,31.29
2019-06-10T12:12:58.399Z,31.30
2019-06-10T12:15:26.124Z,30.48
2019-06-10T12:18:02.688Z,29.65
2019-06-10T12:20:28.498Z,29.24
2019-06-10T12:22:59.601Z,28.94
2019-06-10T12:25:35.048Z,29.42
2019-06-10T12:28:03.518Z,29.38
2019-06-10T12:30:33.748Z,29.03
2019-06-10T12:33:05.322Z,29.24
2019-06-10T12:35:33.326Z,29.01
2019-06-10T12:38:06.095Z,28.61
2019-06-10T12:40:33.619Z,29.34
2019-06-10T12:43:06.836Z,29.02
2019-06-10T12:45:34.412Z,28.66
2019-06-10T12:48:06.260Z,28.88
2019-06-10T12:50:34.845Z,29.19
2019-06-10T12:53:06.931Z,29.50
2019-06-10T12:55:42.803Z,29.42
2019-06-10T12:58:06.237Z,29.38
2019-06-10T13:00:44.627Z,28.27
2019-06-10T13:03:14.070Z,27.29
2019-06-10T13:05:44.648Z,27.32
2019-06-10T13:08:15.839Z,27.21
2019-06-10T13:10:45.900Z,27.60
2019-06-10T13:13:15.107Z,27.63
2019-06-10T13:15:44.653Z,27.51
2019-06-10T13:18:19.208Z,27.83
2019-06-10T13:20:45.304Z,27.73
2019-06-10T13:23:23.207Z,27.80
2019-06-10T13:25:54.463Z,28.06
2019-06-10T13:28:16.614Z,28.38
2019-06-10T13:30:46.122Z,28.35
2019-06-10T13:33:15.451Z,28.25
2019-06-10T13:35:44.659Z,27.97
2019-06-10T13:38:13.944Z,27.71
2019-06-10T13:40:43.563Z,27.71
2019-06-10T13:43:13.268Z,27.99
2019-06-10T13:45:43.128Z,27.72
2019-06-10T13:48:14.947Z,28.72
2019-06-10T13:50:43.543Z,30.48
2019-06-10T13:53:13.589Z,31.27
2019-06-10T13:55:43.704Z,31.65
2019-06-10T13:58:14.691Z,32.34
2019-06-10T14:00:46.756Z,33.59
2019-06-10T14:03:16.311Z,33.94
2019-06-10T14:05:45.712Z,33.59
2019-06-10T14:08:15.321Z,33.41
2019-06-10T14:10:44.873Z,33.42
2019-06-10T14:13:15.482Z,33.50
2019-06-10T14:15:45.351Z,34.00
2019-06-10T14:18:15.355Z,34.47
2019-06-10T14:20:44.662Z,34.84
2019-06-10T14:23:17.473Z,35.31
2019-06-10T14:25:44.858Z,35.65
2019-06-10T14:28:32.288Z,36.13
2019-06-10T14:30:45.086Z,37.03
2019-06-10T14:33:16.657Z,36.68
2019-06-10T14:35:45.335Z,36.51
2019-06-10T14:38:15.870Z,36.54
2019-06-10T14:40:45.160Z,35.97
2019-06-10T14:43:16.041Z,34.92
2019-06-10T14:45:45.295Z,34.48
2019-06-10T14:48:17.450Z,34.79
2019-06-10T14:50:45.653Z,34.74
2019-06-10T14:53:16.785Z,33.70
2019-06-10T14:55:46.089Z,33.63
2019-06-10T14:58:18.930Z,33.15
2019-06-10T15:00:47.633Z,32.79
2019-06-10T15:03:19.871Z,32.12
2019-06-10T15:05:47.966Z,31.79
2019-06-10T15:08:17.538Z,31.28
2019-06-10T15:10:46.828Z,31.55
2019-06-10T15:13:16.367Z,31.39
2019-06-10T15:15:46.178Z,29.89
2019-06-10T15:18:18.145Z,30.51
2019-06-10T15:20:47.455Z,31.35
2019-06-10T15:23:18.706Z,31.58
2019-06-10T15:25:52.541Z,31.48
2019-06-10T15:28:18.796Z,31.51
2019-06-10T15:30:48.164Z,30.80
2019-06-10T15:33:18.526Z,30.54
2019-06-10T15:35:48.343Z,30.87
2019-06-10T15:38:18.816Z,30.74
2019-06-10T15:40:48.663Z,30.93
2019-06-10T15:43:18.145Z,30.83
2019-06-10T15:45:47.319Z,30.99
2019-06-10T15:48:18.446Z,30.84
2019-06-10T15:50:47.793Z,29.96
2019-06-10T15:53:20.013Z,30.14
2019-06-10T15:56:10.193Z,30.19
2019-06-10T15:58:19.951Z,31.06
2019-06-10T16:00:53.090Z,32.29
2019-06-10T16:03:25.531Z,32.70
2019-06-10T16:05:53.101Z,33.13
2019-06-10T16:08:22.791Z,33.17
2019-06-10T16:10:53.886Z,33.08
2019-06-10T16:13:25.687Z,33.47
2019-06-10T16:15:54.495Z,33.81
2019-06-10T16:18:26.064Z,34.29
2019-06-10T16:20:54.902Z,34.40
2019-06-10T16:23:26.664Z,34.74
2019-06-10T16:25:55.512Z,34.22
2019-06-10T16:28:26.361Z,34.57
2019-06-10T16:30:55.868Z,34.31
2019-06-10T16:33:27.811Z,34.04
2019-06-10T16:35:57.324Z,33.94
2019-06-10T16:38:27.337Z,33.42
2019-06-10T16:40:56.921Z,33.71
2019-06-10T16:43:27.769Z,33.51
2019-06-10T16:45:57.651Z,33.37
2019-06-10T16:48:37.052Z,33.04
2019-06-10T16:51:06.596Z,33.34
2019-06-10T16:53:35.984Z,33.66
2019-06-10T16:56:05.254Z,33.81
2019-06-10T16:58:34.527Z,34.27
2019-06-10T17:01:04.320Z,34.75
2019-06-10T17:03:34.101Z,35.09
2019-06-10T17:06:05.723Z,35.81
2019-06-10T17:08:35.022Z,36.89
2019-06-10T17:11:04.550Z,37.14
2019-06-10T17:13:33.806Z,37.65
2019-06-10T17:16:04.707Z,38.02
2019-06-10T17:18:36.907Z,38.23
2019-06-10T17:21:06.229Z,38.66
2019-06-10T17:23:36.759Z,38.92
2019-06-10T17:26:06.275Z,39.14
2019-06-10T17:28:37.005Z,39.62
2019-06-10T17:31:06.468Z,39.72
2019-06-10T17:33:37.960Z,39.85
2019-06-10T17:36:12.590Z,40.00
2019-06-10T17:38:43.103Z,40.19
2019-06-10T17:41:13.424Z,40.60
2019-06-10T17:43:52.207Z,40.39
2019-06-10T17:46:24.090Z,40.35
2019-06-10T17:48:52.836Z,40.35
2019-06-10T17:51:25.651Z,40.42
2019-06-10T17:53:53.576Z,40.52
2019-06-10T17:56:24.984Z,40.90
2019-06-10T17:58:57.889Z,40.85
2019-06-10T18:01:25.528Z,41.03
2019-06-10T18:04:02.524Z,41.12
2019-06-10T18:06:34.401Z,41.36
2019-06-10T18:09:04.012Z,41.27
2019-06-10T18:11:35.660Z,41.46
2019-06-10T18:14:05.198Z,41.52
2019-06-10T18:16:36.540Z,41.62
2019-06-10T18:19:05.746Z,41.77
2019-06-10T18:21:36.397Z,41.94
2019-06-10T18:24:08.424Z,42.00
2019-06-10T18:26:38.034Z,42.04
2019-06-10T18:29:09.203Z,42.09
2019-06-10T18:31:38.257Z,42.16
2019-06-10T18:34:07.548Z,42.28
2019-06-10T18:36:37.721Z,42.46
2019-06-10T18:39:08.191Z,42.76
2019-06-10T18:41:37.588Z,42.89
2019-06-10T18:44:19.985Z,43.02
2019-06-10T18:46:37.868Z,43.04
2019-06-10T18:49:09.657Z,43.13
2019-06-10T18:51:39.771Z,43.29
2019-06-10T18:54:09.370Z,43.29
2019-06-10T18:56:39.990Z,43.24
2019-06-10T18:59:17.865Z,43.35
2019-06-10T19:01:42.366Z,43.37
2019-06-10T19:04:12.998Z,43.31
2019-06-10T19:06:43.149Z,43.34
2019-06-10T19:09:13.171Z,43.49
2019-06-10T19:11:43.329Z,43.51
2019-06-10T19:14:12.929Z,43.59
2019-06-10T19:16:43.045Z,43.79
2019-06-10T19:19:12.909Z,44.01
2019-06-10T19:21:43.928Z,44.09
2019-06-10T19:24:13.419Z,44.18
2019-06-10T19:26:45.052Z,44.44
2019-06-10T19:29:22.006Z,44.55
2019-06-10T19:31:46.043Z,44.72
2019-06-10T19:34:15.591Z,44.85
2019-06-10T19:36:44.842Z,44.94
2019-06-10T19:39:14.049Z,45.01
2019-06-10T19:41:47.061Z,45.03
2019-06-10T19:44:14.611Z,45.02
2019-06-10T19:46:43.817Z,45.16
2019-06-10T19:49:13.519Z,45.30
2019-06-10T19:51:44.827Z,45.32
2019-06-10T19:54:13.882Z,45.39
2019-06-10T19:56:43.761Z,45.28
2019-06-10T19:59:13.417Z,45.30
2019-06-10T20:01:46.720Z,45.33
2019-06-10T20:04:17.986Z,45.50
2019-06-10T20:09:23.990Z,45.34
2019-06-10T20:11:53.200Z,45.16
2019-06-10T20:14:22.397Z,44.96
2019-06-10T20:16:52.705Z,44.87
2019-06-10T20:19:22.529Z,45.04
2019-06-10T20:21:52.009Z,45.08
2019-06-10T20:24:23.821Z,44.90
2019-06-10T20:26:53.171Z,44.94
2019-06-10T20:29:22.324Z,45.04
2019-06-10T20:31:52.425Z,45.08
2019-06-10T20:34:23.782Z,45.12
2019-06-10T20:36:52.903Z,45.26
2019-06-10T20:39:24.713Z,45.36
2019-06-10T20:41:55.572Z,45.37
2019-06-10T20:44:23.993Z,45.55
2019-06-10T20:46:53.261Z,45.71
2019-06-10T20:49:22.707Z,45.77
2019-06-10T20:52:07.055Z,46.00
2019-06-10T20:54:23.351Z,46.50
2019-06-10T20:56:53.399Z,46.64
2019-06-10T20:59:25.799Z,46.71
2019-06-10T21:01:54.116Z,46.95
2019-06-10T21:04:23.862Z,47.31
2019-06-10T21:06:55.988Z,47.49
2019-06-10T21:09:27.966Z,47.56
2019-06-10T21:11:57.161Z,47.82
2019-06-10T21:14:26.548Z,48.01
2019-06-10T21:16:55.792Z,48.16
2019-06-10T21:19:25.038Z,48.29
2019-06-10T21:21:54.933Z,48.47
2019-06-10T21:24:24.271Z,48.68
2019-06-10T21:26:54.978Z,48.96
2019-06-10T21:29:24.376Z,49.32
2019-06-10T21:31:54.892Z,49.59
2019-06-10T21:34:24.413Z,49.84
2019-06-10T21:36:54.354Z,50.02
2019-06-10T21:39:23.977Z,50.27
2019-06-10T21:41:54.526Z,50.54
2019-06-10T21:44:23.866Z,50.68
2019-06-10T21:46:53.229Z,50.77
2019-06-10T21:49:23.610Z,51.07
2019-06-10T21:51:56.589Z,51.67
2019-06-10T21:54:24.137Z,52.05
2019-06-10T21:56:55.390Z,52.52
2019-06-10T21:59:24.272Z,52.77
2019-06-10T22:01:53.612Z,52.94
2019-06-10T22:04:22.822Z,53.18
2019-06-10T22:06:55.485Z,53.27
2019-06-10T22:09:22.986Z,53.30
2019-06-10T22:11:54.203Z,53.40
2019-06-10T22:14:23.509Z,53.59
2019-06-10T22:16:53.410Z,53.80
2019-06-10T22:19:23.663Z,53.92
2019-06-10T22:21:53.620Z,54.11
2019-06-10T22:24:23.830Z,54.35
2019-06-10T22:26:53.217Z,54.53
2019-06-10T22:29:23.044Z,54.60
2019-06-10T22:31:55.039Z,54.66
2019-06-10T22:34:23.421Z,54.73
2019-06-10T22:36:54.425Z,54.84
2019-06-10T22:39:23.604Z,54.98
2019-06-10T22:41:54.080Z,55.11
2019-06-10T22:44:24.307Z,55.27
2019-06-10T22:46:55.372Z,55.40
2019-06-10T22:49:24.745Z,55.54
2019-06-10T22:51:56.554Z,55.62
2019-06-10T22:54:25.045Z,55.79
2019-06-10T22:56:56.767Z,55.99
2019-06-10T22:59:25.186Z,56.19
2019-06-10T23:01:56.487Z,56.39
2019-06-10T23:04:25.474Z,56.56
2019-06-10T23:06:56.531Z,56.67
2019-06-10T23:09:25.883Z,56.86
2019-06-10T23:11:56.445Z,56.94
2019-06-10T23:14:26.234Z,57.02
2019-06-10T23:16:56.786Z,57.15
2019-06-10T23:19:27.276Z,57.25
2019-06-10T23:21:58.170Z,57.38
2019-06-10T23:24:27.889Z,57.53
2019-06-10T23:26:57.987Z,57.87
2019-06-10T23:29:27.232Z,58.16
2019-06-10T23:32:03.646Z,58.51
2019-06-10T23:34:27.442Z,58.72
2019-06-10T23:36:58.328Z,58.91
2019-06-10T23:39:27.849Z,59.29
2019-06-10T23:41:58.324Z,59.78
2019-06-10T23:44:27.981Z,60.16
2019-06-10T23:46:57.416Z,60.52
2019-06-10T23:49:26.611Z,60.78
2019-06-10T23:51:57.196Z,60.89
2019-06-10T23:54:27.014Z,61.08
2019-06-10T23:56:56.616Z,61.29
2019-06-10T23:59:25.918Z,61.59
